Pagrindinis puslapis
METAR-TAF:

METAR-TAF

Oro uostai :

Salernas, Italija

platuma: 40-37N, ilguma: 014-55E, Aukštis: 40 m

Dabartinis oras

Ataskaita buvo paskelbta 14 valandos ir 43 minutes, ne 16:50 UTC
Vėjas 4 kt iš Šiaurės/Šiaurės Vakarų
Temperatūra 12°C
Drėgmė 76%
Slėgis 1026 hPa
Matomumas 10 km arba daugiau
nėra debesų žemiau 1500 m ir nėra kamuolinių lietaus debesų

METAR: LIRI 241650Z 33004KT CAVOK 12/08 Q1026

Laikas: 08:33 (07:33 UTC)


TAF: trūkstamas

Orai ataskaitas ir orų prognozės (METAR, TAF).

turimą stotys yra geltonos ir raudonos taškus žemėlapyje.

Perkelti pele per norėdami pamatyti stoties vardą.

Tada spustelėkite, norėdami matyti oro stebėjimo ir prognozės.

Norėdami pakeisti žemėlapį: spustelėkite ant žalios mygtukų su juodo kryžiaus žemyn,; žalią mygtuką su brūkšneliu, jei norite nutolinti; arba žalių rodyklių gretimoms žemėlapius.


METAR-TAF: